Time;durP1;ratioP1;P1;durP2;ratioP2;P2;SDS_P1;SDS_P2;PMS_P1;PMS_P2;Temp;Humidity;BMP_temperature;BMP_pressure;BME280_temperature;BME280_humidity;BME280_pressure;Samples;Min_cycle;Max_cycle;Signal;HPM_P1;HPM_P2
2022/03/01 00:00:59;;;;;;;33.20;19.42;;;;;;;6.29;47.93;102741.66;5009581;28;20091;-62
2022/03/01 00:03:24;;;;;;;27.15;18.50;;;;;;;6.29;47.93;102736.16;5013880;28;20030;-62
2022/03/01 00:05:49;;;;;;;31.17;18.05;;;;;;;6.27;48.51;102731.84;5012291;28;21666;-61
2022/03/01 00:08:15;;;;;;;23.25;16.20;;;;;;;6.30;48.49;102748.88;5013541;28;20037;-62
2022/03/01 00:10:40;;;;;;;26.25;16.85;;;;;;;6.20;48.70;102745.47;5011489;28;20539;-62
2022/03/01 00:13:07;;;;;;;24.30;17.33;;;;;;;6.17;48.98;102748.59;5013281;28;20041;-62
2022/03/01 00:15:32;;;;;;;27.42;17.10;;;;;;;6.10;49.29;102737.41;5010607;28;20054;-62
2022/03/01 00:17:58;;;;;;;25.80;17.00;;;;;;;6.05;49.05;102741.72;5012988;28;20389;-62
2022/03/01 00:20:26;;;;;;;24.55;15.88;;;;;;;5.96;49.22;102735.38;5009783;28;20037;-62
2022/03/01 00:22:52;;;;;;;24.73;15.48;;;;;;;5.93;49.41;102735.72;5016773;28;20036;-62
2022/03/01 00:25:17;;;;;;;25.38;16.00;;;;;;;5.77;49.56;102738.50;5012562;28;20034;-62
2022/03/01 00:27:42;;;;;;;27.00;17.00;;;;;;;5.83;49.87;102740.56;5012343;28;20030;-62
2022/03/01 00:30:08;;;;;;;21.73;15.90;;;;;;;5.67;50.67;102735.94;5007050;28;20504;-61
2022/03/01 00:32:33;;;;;;;21.65;16.10;;;;;;;5.65;50.27;102732.50;5010964;28;20394;-62
2022/03/01 00:34:59;;;;;;;24.95;17.25;;;;;;;5.59;50.51;102727.69;5010611;28;20041;-62
2022/03/01 00:37:24;;;;;;;25.75;17.20;;;;;;;5.56;50.65;102744.56;5012750;28;20485;-62
2022/03/01 00:39:49;;;;;;;23.23;18.38;;;;;;;5.48;51.57;102739.91;5013198;28;20049;-62
2022/03/01 00:42:17;;;;;;;25.75;17.33;;;;;;;5.48;50.71;102741.81;5011467;28;20389;-62
2022/03/01 00:44:42;;;;;;;21.77;17.35;;;;;;;5.39;51.18;102747.34;5013422;28;20037;-62
2022/03/01 00:47:07;;;;;;;23.67;15.75;;;;;;;5.48;50.88;102744.56;5012874;28;20038;-62
2022/03/01 00:49:34;;;;;;;22.75;15.82;;;;;;;5.39;50.65;102743.72;5012112;28;20493;-62
2022/03/01 00:51:59;;;;;;;22.02;15.52;;;;;;;5.34;51.02;102744.22;5012084;28;20112;-62
2022/03/01 00:54:24;;;;;;;22.17;15.25;;;;;;;5.44;50.81;102741.31;5013227;28;20034;-62
2022/03/01 00:56:49;;;;;;;23.25;15.38;;;;;;;5.38;51.28;102742.88;5011783;28;20038;-62
2022/03/01 00:59:15;;;;;;;19.63;14.73;;;;;;;5.44;51.53;102748.72;5011967;28;20049;-62
2022/03/01 01:01:40;;;;;;;23.00;16.05;;;;;;;5.39;50.67;102744.59;5011419;28;20083;-62
2022/03/01 01:04:06;;;;;;;24.10;15.13;;;;;;;5.44;50.21;102751.47;5012528;28;20394;-62
2022/03/01 01:06:31;;;;;;;20.92;14.55;;;;;;;5.45;50.19;102745.78;5012819;28;20042;-62
2022/03/01 01:08:56;;;;;;;21.63;15.05;;;;;;;5.44;50.66;102741.31;5012678;28;20030;-62
2022/03/01 01:11:22;;;;;;;21.65;14.88;;;;;;;5.37;50.91;102740.28;5011893;28;20025;-62
2022/03/01 01:13:48;;;;;;;20.80;14.55;;;;;;;5.33;50.93;102745.25;5012951;28;20033;-62
2022/03/01 01:16:13;;;;;;;22.63;14.52;;;;;;;5.30;50.79;102733.72;5013087;28;20042;-62
2022/03/01 01:18:43;;;;;;;21.35;15.18;;;;;;;5.29;51.01;102740.28;5011875;28;20038;-62
2022/03/01 01:21:09;;;;;;;18.88;14.13;;;;;;;5.25;50.92;102739.75;5011497;28;20034;-62
2022/03/01 01:23:34;;;;;;;23.08;14.55;;;;;;;5.25;50.64;102737.00;5012466;28;20076;-62
2022/03/01 01:26:02;;;;;;;20.60;15.48;;;;;;;5.24;50.82;102734.44;5011316;28;20099;-61
2022/03/01 01:28:33;;;;;;;22.00;14.73;;;;;;;5.21;50.52;102730.13;5012614;28;20022;-62
2022/03/01 01:30:59;;;;;;;20.17;13.63;;;;;;;5.15;50.95;102737.19;5011868;28;20026;-62
2022/03/01 01:33:24;;;;;;;22.05;14.60;;;;;;;5.14;50.84;102723.56;5013075;28;20413;-62
2022/03/01 01:35:50;;;;;;;21.42;14.90;;;;;;;5.15;51.19;102731.69;5015055;28;20045;-62
2022/03/01 01:38:15;;;;;;;19.60;13.93;;;;;;;5.20;51.32;102736.66;5012019;28;20104;-62
2022/03/01 01:40:40;;;;;;;23.40;14.65;;;;;;;5.11;51.30;102735.81;5012427;28;20125;-63
2022/03/01 01:43:06;;;;;;;20.25;14.82;;;;;;;5.12;51.21;102737.53;5012528;28;20037;-62
2022/03/01 01:45:32;;;;;;;18.23;14.13;;;;;;;5.16;50.79;102736.16;5011595;28;20481;-62
2022/03/01 01:48:03;;;;;;;19.80;14.00;;;;;;;5.08;51.45;102732.53;5009880;28;20071;-62
2022/03/01 01:50:34;;;;;;;19.05;14.23;;;;;;;5.04;51.54;102739.41;5011224;28;20029;-62
2022/03/01 01:52:59;;;;;;;22.23;14.93;;;;;;;5.08;51.56;102729.78;5011432;28;20534;-62
2022/03/01 01:55:26;;;;;;;19.73;14.20;;;;;;;5.07;51.27;102733.53;5011346;28;20117;-62
2022/03/01 01:57:52;;;;;;;22.27;14.68;;;;;;;5.09;50.33;102732.34;5011899;28;20100;-62
2022/03/01 02:00:17;;;;;;;20.08;14.23;;;;;;;5.12;50.53;102728.41;5018322;28;20056;-62
2022/03/01 02:02:43;;;;;;;23.40;14.77;;;;;;;5.22;49.57;102726.31;5012086;28;20041;-61
2022/03/01 02:05:09;;;;;;;21.02;14.70;;;;;;;5.24;49.54;102732.53;5010295;28;20033;-62
2022/03/01 02:07:37;;;;;;;21.23;13.32;;;;;;;5.27;49.01;102721.19;5010372;28;20026;-62
2022/03/01 02:10:04;;;;;;;20.67;15.02;;;;;;;5.27;49.37;102720.31;5016571;28;20025;-62
2022/03/01 02:12:29;;;;;;;20.67;13.85;;;;;;;5.32;48.93;102720.66;5011580;28;20152;-62
2022/03/01 02:14:54;;;;;;;20.20;14.23;;;;;;;5.32;49.08;102720.66;5011627;28;20113;-62
2022/03/01 02:17:20;;;;;;;20.77;13.88;;;;;;;5.36;49.05;102724.78;5011378;28;20673;-62
2022/03/01 02:19:49;;;;;;;18.88;13.82;;;;;;;5.37;48.59;102721.00;5010931;28;20462;-62
2022/03/01 02:22:15;;;;;;;19.77;14.48;;;;;;;5.42;48.84;102713.06;5011667;28;20034;-62
2022/03/01 02:24:41;;;;;;;22.95;14.50;;;;;;;5.46;48.43;102716.34;5010801;28;20033;-62
2022/03/01 02:27:06;;;;;;;20.65;13.63;;;;;;;5.44;48.28;102719.28;5010986;28;20037;-62
2022/03/01 02:29:32;;;;;;;22.00;13.82;;;;;;;5.48;48.13;102720.66;5011724;28;20141;-61
2022/03/01 02:32:00;;;;;;;21.70;14.32;;;;;;;5.45;48.33;102729.25;5009922;28;20089;-62
2022/03/01 02:34:25;;;;;;;18.48;13.75;;;;;;;5.49;48.19;102727.88;5010086;28;20036;-62
2022/03/01 02:36:51;;;;;;;22.58;14.05;;;;;;;5.46;48.26;102717.19;5011421;28;20038;-62
2022/03/01 02:39:17;;;;;;;21.05;14.75;;;;;;;5.45;47.86;102715.47;5011137;28;20417;-62
2022/03/01 02:41:44;;;;;;;19.65;14.07;;;;;;;5.48;47.97;102715.13;5010743;28;20106;-62
2022/03/01 02:44:11;;;;;;;20.67;14.52;;;;;;;5.38;48.28;102711.69;5011229;28;20037;-62
2022/03/01 02:46:39;;;;;;;20.73;14.23;;;;;;;5.40;48.39;102712.38;5011746;28;20033;-62
2022/03/01 02:49:06;;;;;;;20.33;13.48;;;;;;;5.40;48.62;102715.16;5010191;28;20470;-62
2022/03/01 02:51:32;;;;;;;18.92;13.68;;;;;;;5.43;48.00;102703.78;5010562;28;20030;-62
2022/03/01 02:53:58;;;;;;;19.30;13.63;;;;;;;5.38;48.31;102700.69;5010510;28;20103;-62
2022/03/01 02:56:24;;;;;;;21.08;14.18;;;;;;;5.41;48.43;102705.84;5009757;28;20061;-62
2022/03/01 02:58:50;;;;;;;23.58;13.10;;;;;;;5.41;47.73;102692.06;5011306;28;20034;-62
2022/03/01 03:01:15;;;;;;;17.05;12.60;;;;;;;5.45;47.60;102693.44;5014087;28;20659;-62
2022/03/01 03:03:44;;;;;;;23.83;14.07;;;;;;;5.51;47.48;102709.28;5014429;28;20465;-62
2022/03/01 03:06:09;;;;;;;16.98;12.82;;;;;;;5.56;47.41;102704.09;5008729;28;20037;-62
2022/03/01 03:08:37;;;;;;;16.90;13.35;;;;;;;5.59;46.90;102694.63;5011276;28;20021;-62
2022/03/01 03:11:02;;;;;;;19.08;13.68;;;;;;;5.55;47.73;102699.63;5009359;28;21607;-62
2022/03/01 03:13:28;;;;;;;16.70;13.02;;;;;;;5.58;47.10;102698.41;5011477;28;20065;-62
2022/03/01 03:15:53;;;;;;;18.17;13.43;;;;;;;5.53;47.66;102696.19;5010100;28;20070;-62
2022/03/01 03:18:18;;;;;;;17.88;13.05;;;;;;;5.53;47.14;102693.44;5010391;28;20026;-62
2022/03/01 03:20:44;;;;;;;19.63;14.13;;;;;;;5.51;47.33;102695.50;5011222;28;20040;-62
2022/03/01 03:23:09;;;;;;;18.35;13.13;;;;;;;5.51;47.46;102701.03;5007308;28;20034;-62
2022/03/01 03:25:35;;;;;;;19.90;13.68;;;;;;;5.48;47.39;102697.75;5010977;28;20030;-62
2022/03/01 03:28:00;;;;;;;19.67;12.75;;;;;;;5.43;47.75;102706.53;5010095;28;20397;-62
2022/03/01 03:30:26;;;;;;;18.20;13.43;;;;;;;5.48;47.27;102695.00;5009743;28;20038;-61
2022/03/01 03:32:54;;;;;;;18.55;13.30;;;;;;;5.51;47.72;102691.91;5010673;28;20486;-62
2022/03/01 03:35:20;;;;;;;18.65;13.45;;;;;;;5.47;47.67;102691.38;5010578;28;20026;-62
2022/03/01 03:37:46;;;;;;;18.90;14.18;;;;;;;5.46;48.09;102694.31;5007863;28;20045;-62
2022/03/01 03:40:14;;;;;;;20.92;13.77;;;;;;;5.50;48.72;102701.19;5009458;28;20113;-62
2022/03/01 03:42:41;;;;;;;21.48;14.23;;;;;;;5.42;48.66;102693.78;4996695;28;20034;-62
2022/03/01 03:45:08;;;;;;;18.55;13.73;;;;;;;5.41;49.04;102695.69;5010023;28;20037;-62
2022/03/01 03:47:33;;;;;;;19.30;13.43;;;;;;;5.43;48.91;102700.19;5008319;28;20052;-62
2022/03/01 03:49:58;;;;;;;19.23;13.77;;;;;;;5.37;48.74;102701.72;5008479;28;20019;-62
2022/03/01 03:52:24;;;;;;;19.27;13.95;;;;;;;5.33;49.01;102700.34;5008904;28;20037;-62
2022/03/01 03:54:50;;;;;;;20.85;14.15;;;;;;;5.32;49.11;102695.88;5009495;28;20030;-62
2022/03/01 03:57:18;;;;;;;20.17;14.32;;;;;;;5.26;49.91;102691.06;4997478;28;20040;-61
2022/03/01 03:59:43;;;;;;;21.27;13.82;;;;;;;5.30;49.19;102696.03;5008180;28;20022;-62
2022/03/01 04:02:09;;;;;;;23.52;13.20;;;;;;;5.32;48.80;102695.88;5001513;28;20534;-62
2022/03/01 04:04:42;;;;;;;20.40;13.70;;;;;;;5.23;48.95;102688.66;5003164;28;20026;-62
2022/03/01 04:07:09;;;;;;;21.88;14.35;;;;;;;5.27;48.07;102695.56;5008085;28;20470;-62
2022/03/01 04:09:34;;;;;;;19.33;13.85;;;;;;;5.25;47.63;102703.09;5008761;28;20470;-62
2022/03/01 04:11:59;;;;;;;17.80;13.60;;;;;;;5.27;48.79;102692.78;5003452;28;20045;-62
2022/03/01 04:14:25;;;;;;;21.42;14.57;;;;;;;5.27;48.82;102690.91;4996869;28;20156;-62
2022/03/01 04:16:50;;;;;;;20.98;13.85;;;;;;;5.32;48.24;102696.75;5007680;28;20041;-62
2022/03/01 04:19:17;;;;;;;20.92;14.40;;;;;;;5.30;47.88;102707.03;5008125;28;20030;-62
2022/03/01 04:21:43;;;;;;;19.70;14.70;;;;;;;5.25;49.15;102703.97;5003077;28;20026;-62
2022/03/01 04:24:08;;;;;;;19.35;13.70;;;;;;;5.26;48.63;102699.31;5010303;28;20041;-62
2022/03/01 04:26:33;;;;;;;19.67;14.27;;;;;;;5.32;48.43;102698.63;5007973;28;20544;-63
2022/03/01 04:29:03;;;;;;;21.58;14.30;;;;;;;5.26;49.31;102704.81;5010378;28;20112;-61
2022/03/01 04:31:29;;;;;;;21.75;14.70;;;;;;;5.38;47.74;102704.31;5009744;28;20038;-62
2022/03/01 04:33:55;;;;;;;21.30;15.05;;;;;;;5.33;47.97;102706.72;5007826;28;20097;-62
2022/03/01 04:36:20;;;;;;;20.70;14.52;;;;;;;5.34;47.54;102707.56;4993790;28;20213;-62
2022/03/01 04:38:45;;;;;;;21.65;14.50;;;;;;;5.34;47.54;102697.41;5005321;28;20100;-62
2022/03/01 04:41:11;;;;;;;20.90;14.32;;;;;;;5.34;47.94;102702.06;5012411;28;20049;-62
2022/03/01 04:43:36;;;;;;;20.65;14.35;;;;;;;5.36;48.33;102700.00;5012105;28;20100;-61
2022/03/01 04:46:04;;;;;;;20.25;14.52;;;;;;;5.37;47.93;102702.56;5013288;28;20497;-61
2022/03/01 04:48:30;;;;;;;20.40;14.63;;;;;;;5.36;47.82;102700.00;5004641;28;20038;-62
2022/03/01 04:50:55;;;;;;;18.38;14.43;;;;;;;5.38;47.97;102707.06;5004996;28;20027;-62
2022/03/01 04:53:21;;;;;;;23.85;14.73;;;;;;;5.35;48.65;102692.78;5006211;28;20033;-61
2022/03/01 04:55:46;;;;;;;21.85;14.73;;;;;;;5.42;47.81;102699.28;5004432;28;20038;-62
2022/03/01 04:58:12;;;;;;;25.25;15.10;;;;;;;5.40;47.39;102701.38;4999278;28;20125;-62
2022/03/01 05:00:37;;;;;;;20.67;14.48;;;;;;;5.40;47.26;102690.38;5011652;28;20121;-62
2022/03/01 05:03:03;;;;;;;25.70;14.95;;;;;;;5.43;47.66;102690.03;5011687;28;20026;-62
2022/03/01 05:05:28;;;;;;;19.48;14.75;;;;;;;5.39;47.49;102680.38;5001626;28;20034;-62
2022/03/01 05:07:54;;;;;;;21.08;14.70;;;;;;;5.39;47.42;102694.16;5009101;28;20110;-61
2022/03/01 05:10:21;;;;;;;19.15;14.02;;;;;;;5.35;47.75;102688.13;5012064;28;20030;-62
2022/03/01 05:12:52;;;;;;;22.45;14.73;;;;;;;5.38;48.05;102692.41;5011764;28;20033;-61
2022/03/01 05:15:19;;;;;;;20.92;13.60;;;;;;;5.36;47.83;102689.00;5012499;28;20129;-62
2022/03/01 05:17:45;;;;;;;21.95;14.32;;;;;;;5.36;47.57;102683.47;5011937;28;20547;-62
2022/03/01 05:20:12;;;;;;;22.73;14.05;;;;;;;5.41;47.37;102686.56;5010481;28;20026;-62
2022/03/01 05:22:38;;;;;;;20.63;14.32;;;;;;;5.41;47.53;102697.59;5003687;28;20073;-62
2022/03/01 05:25:04;;;;;;;22.05;15.43;;;;;;;5.37;47.65;102687.94;5012829;28;20053;-62
2022/03/01 05:27:32;;;;;;;18.73;13.65;;;;;;;5.32;48.61;102684.88;5021502;28;20048;-61
2022/03/01 05:29:58;;;;;;;22.15;14.35;;;;;;;5.31;49.09;102674.91;5010536;28;20061;-61
2022/03/01 05:32:23;;;;;;;21.83;14.55;;;;;;;5.28;49.50;102670.59;5005316;28;20068;-62
2022/03/01 05:34:49;;;;;;;22.35;14.27;;;;;;;5.30;48.67;102668.50;5010879;28;20025;-61
2022/03/01 05:37:18;;;;;;;19.10;13.75;;;;;;;5.35;47.78;102665.25;5006948;28;20103;-62
2022/03/01 05:39:43;;;;;;;21.20;13.85;;;;;;;5.41;47.54;102664.53;4992869;28;20116;-61
2022/03/01 05:42:09;;;;;;;19.58;14.20;;;;;;;5.39;47.35;102663.88;4993390;28;20034;-62
2022/03/01 05:44:35;;;;;;;20.90;14.52;;;;;;;5.44;47.30;102657.81;4991388;28;20545;-62
2022/03/01 05:47:00;;;;;;;21.42;14.50;;;;;;;5.39;46.91;102667.47;4992573;28;20113;-62
2022/03/01 05:49:26;;;;;;;20.52;14.25;;;;;;;5.41;46.52;102656.28;4992646;28;20030;-62
2022/03/01 05:51:51;;;;;;;19.40;14.32;;;;;;;5.41;47.56;102653.53;4990961;28;20027;-61
2022/03/01 05:54:17;;;;;;;19.65;14.23;;;;;;;5.46;47.31;102662.09;4990442;28;20034;-62
2022/03/01 05:56:42;;;;;;;20.80;14.40;;;;;;;5.38;47.72;102659.38;4992672;28;20092;-62
2022/03/01 05:59:08;;;;;;;21.35;14.93;;;;;;;5.42;46.40;102660.75;4990780;28;20468;-62
2022/03/01 06:01:33;;;;;;;18.83;13.77;;;;;;;5.44;46.67;102666.94;4991352;28;20131;-62
2022/03/01 06:03:59;;;;;;;20.83;14.57;;;;;;;5.43;47.73;102658.88;4990646;28;20028;-61
2022/03/01 06:06:24;;;;;;;18.63;13.48;;;;;;;5.35;47.30;102660.59;4990930;28;20092;-62
2022/03/01 06:08:49;;;;;;;19.15;13.85;;;;;;;5.37;47.47;102655.75;4990866;28;20514;-61
2022/03/01 06:11:15;;;;;;;18.98;14.05;;;;;;;5.37;46.92;102657.66;4991601;28;20099;-62
2022/03/01 06:13:43;;;;;;;21.42;14.98;;;;;;;5.33;48.28;102656.28;4991240;28;20516;-61
2022/03/01 06:16:09;;;;;;;23.13;15.00;;;;;;;5.34;47.09;102650.59;4990975;28;20045;-62
2022/03/01 06:18:37;;;;;;;20.67;14.65;;;;;;;5.31;47.00;102653.72;4991918;28;20030;-62
2022/03/01 06:21:03;;;;;;;24.92;14.77;;;;;;;5.31;47.13;102658.38;4995575;28;20034;-62
2022/03/01 06:23:30;;;;;;;21.40;15.02;;;;;;;5.32;47.35;102660.09;4999726;28;20040;-62
2022/03/01 06:25:55;;;;;;;22.30;14.85;;;;;;;5.28;48.33;102654.06;4987298;28;20539;-62
2022/03/01 06:28:24;;;;;;;20.20;14.77;;;;;;;5.29;48.47;102657.66;4991733;28;20033;-61
2022/03/01 06:30:49;;;;;;;25.77;16.23;;;;;;;5.24;49.09;102658.19;4991109;28;20034;-61
2022/03/01 06:33:17;;;;;;;21.92;14.45;;;;;;;5.19;49.58;102666.13;4990879;28;20041;-61
2022/03/01 06:35:43;;;;;;;24.65;16.45;;;;;;;5.13;49.56;102670.41;4991502;28;20125;-61
2022/03/01 06:38:09;;;;;;;26.63;16.15;;;;;;;5.12;49.15;102676.09;4996598;28;20132;-62
2022/03/01 06:40:34;;;;;;;25.33;16.17;;;;;;;5.09;49.20;102676.44;5010438;28;20573;-61
2022/03/01 06:42:59;;;;;;;24.17;16.05;;;;;;;5.04;50.38;102684.38;5010782;28;20050;-62
2022/03/01 06:45:25;;;;;;;19.70;14.93;;;;;;;5.06;50.25;102687.78;5010616;28;20083;-62
2022/03/01 06:47:50;;;;;;;21.38;14.63;;;;;;;5.06;50.16;102685.88;5011148;28;20052;-61
2022/03/01 06:50:16;;;;;;;22.75;15.18;;;;;;;5.09;48.68;102682.81;5007918;28;20083;-61
2022/03/01 06:52:41;;;;;;;24.67;15.48;;;;;;;5.12;49.05;102687.13;5015267;28;20030;-61
2022/03/01 06:55:08;;;;;;;26.65;16.60;;;;;;;5.14;49.67;102685.03;5009611;28;20038;-61
2022/03/01 06:57:34;;;;;;;22.13;15.80;;;;;;;5.16;49.54;102697.59;5009984;28;20034;-61
2022/03/01 06:59:59;;;;;;;24.23;16.20;;;;;;;5.14;49.15;102701.56;5010198;28;20029;-61
2022/03/01 07:02:28;;;;;;;22.02;15.98;;;;;;;5.16;49.84;102697.59;5010212;28;20026;-61
2022/03/01 07:04:54;;;;;;;24.60;16.45;;;;;;;5.21;49.55;102702.59;5010018;28;20026;-61
2022/03/01 07:07:21;;;;;;;22.80;16.67;;;;;;;5.24;50.01;102698.63;5010070;28;20063;-62
2022/03/01 07:09:46;;;;;;;25.15;16.40;;;;;;;5.30;49.76;102700.69;5009479;28;20087;-61
2022/03/01 07:12:11;;;;;;;25.80;15.90;;;;;;;5.34;50.09;102699.31;5002722;28;20418;-62
2022/03/01 07:14:37;;;;;;;23.52;16.38;;;;;;;5.38;49.29;102704.31;5010590;28;20042;-62
2022/03/01 07:17:03;;;;;;;25.95;16.17;;;;;;;5.43;48.87;102700.19;5009256;28;20124;-62
2022/03/01 07:19:28;;;;;;;25.77;16.98;;;;;;;5.47;48.81;102693.28;5008843;28;20030;-61
2022/03/01 07:21:53;;;;;;;24.30;17.00;;;;;;;5.50;48.68;102696.56;5009616;28;20116;-61
2022/03/01 07:24:19;;;;;;;26.45;17.48;;;;;;;5.51;48.21;102700.16;5008470;28;20025;-61
2022/03/01 07:26:44;;;;;;;26.90;17.08;;;;;;;5.52;48.57;102705.50;5004614;28;20172;-62
2022/03/01 07:29:09;;;;;;;26.33;17.70;;;;;;;5.51;49.51;102694.66;5009371;28;20483;-62
2022/03/01 07:31:35;;;;;;;26.60;17.58;;;;;;;5.56;49.67;102703.25;5009314;28;20096;-62
2022/03/01 07:34:03;;;;;;;25.90;17.45;;;;;;;5.59;48.85;102706.50;5008977;28;20128;-62
2022/03/01 07:36:28;;;;;;;26.48;16.88;;;;;;;5.60;49.00;102708.22;5007562;28;20026;-62
2022/03/01 07:38:54;;;;;;;24.85;16.90;;;;;;;5.62;49.17;102717.19;5005944;28;20042;-62
2022/03/01 07:41:19;;;;;;;24.23;17.63;;;;;;;5.66;48.54;102723.22;5006237;28;20039;-62
2022/03/01 07:43:47;;;;;;;25.05;16.77;;;;;;;5.68;48.44;102731.28;5009194;28;20500;-62
2022/03/01 07:46:16;;;;;;;26.27;17.38;;;;;;;5.73;48.34;102737.13;5007856;28;20038;-62
2022/03/01 07:48:46;;;;;;;26.92;18.02;;;;;;;5.70;48.76;102730.09;5009969;28;20072;-62
2022/03/01 07:51:11;;;;;;;25.52;18.05;;;;;;;5.75;48.49;102721.28;5007699;28;20053;-62
2022/03/01 07:53:37;;;;;;;21.92;16.67;;;;;;;5.78;47.85;102715.44;5004176;28;20050;-62
2022/03/01 07:56:03;;;;;;;23.60;16.73;;;;;;;5.80;47.50;102710.59;5009596;28;20516;-62
2022/03/01 07:58:28;;;;;;;23.20;16.70;;;;;;;5.78;47.57;102709.94;5008615;28;20141;-62
2022/03/01 08:00:54;;;;;;;24.02;16.90;;;;;;;5.79;47.40;102703.38;5005625;28;20046;-61
2022/03/01 08:03:19;;;;;;;27.13;17.67;;;;;;;5.76;47.78;102707.34;5005327;28;20098;-61
2022/03/01 08:05:45;;;;;;;22.95;16.23;;;;;;;5.79;47.52;102712.50;5007245;28;20026;-60
2022/03/01 08:08:11;;;;;;;23.73;16.60;;;;;;;5.77;47.28;102719.22;5008748;28;20469;-60
2022/03/01 08:10:37;;;;;;;28.77;16.73;;;;;;;5.76;47.18;102723.88;5002240;28;20544;-61
2022/03/01 08:13:05;;;;;;;23.60;16.65;;;;;;;5.71;47.48;102730.94;4999159;28;20041;-61
2022/03/01 08:15:33;;;;;;;26.08;16.67;;;;;;;5.71;47.78;102717.19;5002283;28;20038;-60
2022/03/01 08:18:01;;;;;;;25.63;16.42;;;;;;;5.70;47.96;102723.69;4996428;28;20025;-61
2022/03/01 08:20:27;;;;;;;23.77;17.38;;;;;;;5.74;47.93;102714.03;5004030;28;20045;-61
2022/03/01 08:22:53;;;;;;;25.20;16.38;;;;;;;5.76;47.90;102718.34;5000576;28;20026;-60
2022/03/01 08:25:19;;;;;;;22.40;16.13;;;;;;;5.78;47.66;102726.47;5009324;28;20030;-61
2022/03/01 08:27:45;;;;;;;26.67;16.95;;;;;;;5.81;47.88;102723.34;5000914;28;20150;-63
2022/03/01 08:30:12;;;;;;;24.40;17.08;;;;;;;5.83;47.94;102729.53;5003757;28;20021;-61
2022/03/01 08:32:37;;;;;;;24.42;17.13;;;;;;;5.83;47.93;102733.16;5000997;28;20034;-61
2022/03/01 08:35:04;;;;;;;25.80;16.58;;;;;;;5.85;48.10;102733.81;5006156;28;20060;-60
2022/03/01 08:37:29;;;;;;;23.80;16.20;;;;;;;5.89;47.51;102737.09;5000353;28;20096;-60
2022/03/01 08:39:54;;;;;;;23.27;17.35;;;;;;;5.89;47.40;102734.34;5004193;28;20057;-61
2022/03/01 08:42:20;;;;;;;26.95;17.02;;;;;;;5.99;48.30;102731.44;4996522;28;20913;-60
2022/03/01 08:44:45;;;;;;;26.67;17.10;;;;;;;5.99;48.14;102734.19;5004670;28;20025;-60
2022/03/01 08:47:11;;;;;;;25.58;16.50;;;;;;;5.98;47.64;102738.84;5002476;28;20037;-60
2022/03/01 08:49:36;;;;;;;25.70;16.98;;;;;;;6.02;47.66;102739.34;5011173;28;20462;-60
2022/03/01 08:52:02;;;;;;;27.73;17.33;;;;;;;6.04;47.67;102745.53;5012715;28;20060;-60
2022/03/01 08:54:27;;;;;;;23.90;16.95;;;;;;;6.06;47.82;102751.75;5004635;28;20568;-60
2022/03/01 08:56:52;;;;;;;27.48;16.73;;;;;;;6.10;47.79;102755.88;5009901;28;20045;-61
2022/03/01 08:59:21;;;;;;;22.67;16.85;;;;;;;6.13;48.20;102758.25;5011330;28;20029;-60
2022/03/01 09:01:46;;;;;;;26.30;17.02;;;;;;;6.18;47.01;102753.06;5008317;28;20108;-61
2022/03/01 09:04:13;;;;;;;24.23;15.77;;;;;;;6.19;46.53;102752.03;5007310;28;20124;-61
2022/03/01 09:06:38;;;;;;;24.98;16.20;;;;;;;6.27;47.21;102762.19;5006903;28;20428;-61
2022/03/01 09:09:03;;;;;;;26.20;16.42;;;;;;;6.35;46.45;102760.25;5006003;28;20026;-62
2022/03/01 09:11:29;;;;;;;26.30;17.02;;;;;;;6.41;47.38;102766.97;5008905;28;20033;-60
2022/03/01 09:13:54;;;;;;;25.70;16.10;;;;;;;6.47;46.31;102766.22;5008565;28;20029;-60
2022/03/01 09:16:19;;;;;;;23.73;15.63;;;;;;;6.57;46.15;102766.88;5007041;28;20045;-61
2022/03/01 09:18:45;;;;;;;23.17;15.98;;;;;;;6.65;46.10;102760.47;5008000;28;20034;-61
2022/03/01 09:21:10;;;;;;;24.58;16.83;;;;;;;6.74;46.02;102761.28;5006669;28;20109;-61
2022/03/01 09:23:38;;;;;;;24.92;16.67;;;;;;;6.76;45.74;102753.66;5007916;28;20033;-60
2022/03/01 09:26:04;;;;;;;25.83;16.27;;;;;;;6.74;45.71;102750.22;5007669;28;20757;-60
2022/03/01 09:28:31;;;;;;;22.73;16.45;;;;;;;6.74;45.93;102753.84;4998699;28;20037;-60
2022/03/01 09:30:57;;;;;;;24.85;16.08;;;;;;;6.75;46.35;102751.94;5003815;28;20022;-62
2022/03/01 09:33:22;;;;;;;22.85;15.90;;;;;;;6.73;45.42;102752.13;5009965;28;20084;-61
2022/03/01 09:35:47;;;;;;;23.20;16.05;;;;;;;6.73;45.59;102749.38;4999904;28;20093;-62
2022/03/01 09:38:13;;;;;;;23.50;16.65;;;;;;;6.71;45.73;102753.34;5008107;28;20038;-62
2022/03/01 09:40:39;;;;;;;27.05;16.90;;;;;;;6.70;46.29;102759.91;4997725;28;20490;-62
2022/03/01 09:43:05;;;;;;;23.95;15.85;;;;;;;6.74;45.79;102745.56;4992416;28;20065;-61
2022/03/01 09:45:36;;;;;;;25.70;16.98;;;;;;;6.77;46.70;102755.41;4983240;28;20034;-63
2022/03/01 09:48:04;;;;;;;23.77;16.38;;;;;;;6.81;46.29;102759.50;4990295;28;20069;-61
2022/03/01 09:50:30;;;;;;;23.00;16.35;;;;;;;6.83;45.73;102765.69;4993558;28;20038;-61
2022/03/01 09:53:03;;;;;;;21.35;15.68;;;;;;;6.88;46.29;102768.78;4985924;28;20398;-62
2022/03/01 09:55:28;;;;;;;21.58;16.10;;;;;;;6.86;45.85;102776.38;4987512;28;20069;-62
2022/03/01 09:57:56;;;;;;;21.58;15.23;;;;;;;6.89;45.30;102762.22;4982153;28;20030;-62
2022/03/01 10:00:22;;;;;;;22.08;16.27;;;;;;;6.91;45.82;102767.53;4985354;28;20135;-62
2022/03/01 10:02:53;;;;;;;24.23;16.40;;;;;;;6.92;46.45;102775.66;4987661;28;20034;-62
2022/03/01 10:05:29;;;;;;;21.35;15.82;;;;;;;6.93;45.58;102776.53;4987202;28;20065;-63
2022/03/01 10:07:55;;;;;;;22.88;14.63;;;;;;;6.95;45.66;102775.28;4990554;28;20081;-62
2022/03/01 10:10:21;;;;;;;22.25;15.70;;;;;;;6.95;46.06;102779.94;4986756;28;20026;-62
2022/03/01 10:12:54;;;;;;;27.05;16.10;;;;;;;6.97;45.89;102772.34;4984576;28;20121;-63
2022/03/01 10:15:27;;;;;;;21.90;15.85;;;;;;;7.00;45.76;102767.31;4987566;28;20398;-62
2022/03/01 10:17:52;;;;;;;24.85;16.48;;;;;;;7.02;44.93;102781.78;4988045;28;20022;-62
2022/03/01 10:20:19;;;;;;;24.80;16.45;;;;;;;7.06;46.10;102772.09;4988250;28;20042;-64
2022/03/01 10:22:49;;;;;;;25.13;16.70;;;;;;;7.07;46.01;102764.66;4989125;28;20129;-62
2022/03/01 10:25:17;;;;;;;27.63;16.10;;;;;;;7.08;45.18;102761.75;4988289;28;20038;-62
2022/03/01 10:27:48;;;;;;;25.50;15.88;;;;;;;7.11;45.23;102763.25;4989907;28;20077;-61
2022/03/01 10:30:30;;;;;;;24.13;16.17;;;;;;;7.09;45.29;102743.28;4981049;28;20374;-62
2022/03/01 10:33:15;;;;;;;;;;;;;;;7.26;45.60;102758.66;4990938;28;20125;-62
2022/03/01 10:35:48;;;;;;;23.48;15.20;;;;;;;7.24;45.27;102757.16;4986985;28;19929;-62
2022/03/01 10:38:18;;;;;;;;;;;;;;;7.35;46.07;102754.81;4987565;28;20117;-62
2022/03/01 10:40:44;;;;;;;20.60;15.35;;;;;;;7.34;45.29;102754.97;5000784;28;19924;-62
2022/03/01 10:43:14;;;;;;;22.90;15.88;;;;;;;7.35;45.13;102746.53;5008607;28;20038;-62
2022/03/01 10:45:43;;;;;;;22.70;15.93;;;;;;;7.44;43.97;102740.94;5011651;28;20389;-60
2022/03/01 10:48:11;;;;;;;24.42;15.90;;;;;;;7.51;45.08;102753.81;5004751;28;20492;-61
2022/03/01 10:50:39;;;;;;;22.33;15.05;;;;;;;7.56;44.56;102743.03;5003224;28;20034;-61
2022/03/01 10:53:06;;;;;;;23.73;15.68;;;;;;;7.61;44.15;102748.00;4997743;28;20096;-61
2022/03/01 10:55:33;;;;;;;24.77;15.40;;;;;;;7.69;44.54;102761.75;5000280;28;20078;-62
2022/03/01 10:58:04;;;;;;;25.05;15.48;;;;;;;7.79;44.73;102764.25;5006230;28;20531;-62
2022/03/01 11:00:30;;;;;;;24.63;15.80;;;;;;;7.82;43.86;102766.63;5003869;28;20034;-62
2022/03/01 11:02:55;;;;;;;22.25;15.52;;;;;;;7.88;44.18;102758.44;4999058;28;20681;-62
2022/03/01 11:05:22;;;;;;;19.52;14.48;;;;;;;7.95;43.37;102772.38;5008759;28;20029;-62
2022/03/01 11:07:49;;;;;;;19.35;14.43;;;;;;;7.95;44.07;102764.09;5003895;28;20061;-64
2022/03/01 11:10:16;;;;;;;24.13;15.70;;;;;;;7.98;44.71;102772.00;5005292;28;20026;-61
2022/03/01 11:12:48;;;;;;;27.45;15.63;;;;;;;7.99;44.11;102762.66;5000417;28;20030;-59